LPPR/OPO METAR and TAF weather

Enter ICAO airport designator
Station Type Date Time Source
LPPR METAR 2022/06/30 01:30 UTC NOAA

LPPR 300130Z 35007KT CAVOK 13/10 Q1018


Station Type Date Time Source
LPPR Decoded METAR 2022/06/30 01:30 UTC NOAA

Porto / Pedras Rubras, Portugal (LPPR) 41-14N 008-41W 77M
Jun 29, 2022 - 09:30 PM EDT / 2022.06.30 0130 UTC
Wind: from the N (350 degrees) at 8 MPH (7 KT):0
Visibility: greater than 7 mile(s):0
Temperature: 55 F (13 C)
Dew Point: 50 F (10 C)
Relative Humidity: 81%
Pressure (altimeter): 30.06 in. Hg (1018 hPa)
ob: LPPR 300130Z 35007KT CAVOK 13/10 Q1018
cycle: 1

Station Type Date Time Source
LPPR TAF 2022/06/29 18:18 UTC NOAA

TAF LPPR 291700Z 2918/3018 33013KT CAVOK PROB30
TEMPO 2918/2921 34018G28KT
BECMG 2921/2924 34008KT
BECMG 3010/3012 32015KT
TEMPO 3012/3018 32018G28KT

Example: see airport list